createdAt,value
2023-08-17T00:01:22.293Z,24.43
2023-08-17T00:03:50.718Z,24.43
2023-08-17T00:06:19.043Z,24.47
2023-08-17T00:08:49.241Z,24.49
2023-08-17T00:11:19.110Z,24.57
2023-08-17T00:13:50.722Z,24.62
2023-08-17T00:16:20.385Z,24.68
2023-08-17T00:18:49.887Z,24.72
2023-08-17T00:21:21.120Z,24.77
2023-08-17T00:23:50.408Z,24.73
2023-08-17T00:26:19.543Z,24.72
2023-08-17T00:28:50.547Z,24.71
2023-08-17T00:31:20.036Z,24.64
2023-08-17T00:33:49.015Z,24.55
2023-08-17T00:36:18.307Z,24.46
2023-08-17T00:38:47.702Z,24.46
2023-08-17T00:41:19.150Z,24.42
2023-08-17T00:43:49.786Z,24.46
2023-08-17T00:46:21.792Z,24.42
2023-08-17T00:48:51.017Z,24.41
2023-08-17T00:51:21.824Z,24.39
2023-08-17T00:53:50.522Z,24.44
2023-08-17T00:56:18.969Z,24.41
2023-08-17T00:58:48.804Z,24.38
2023-08-17T01:01:17.153Z,24.35
2023-08-17T01:03:45.524Z,24.41
2023-08-17T01:06:15.009Z,24.37
2023-08-17T01:08:47.437Z,24.34
2023-08-17T01:11:27.706Z,24.33
2023-08-17T01:14:05.018Z,24.36
2023-08-17T01:16:41.507Z,24.39
2023-08-17T01:19:12.029Z,24.34
2023-08-17T01:21:46.214Z,24.32
2023-08-17T01:24:17.720Z,24.39
2023-08-17T01:26:48.367Z,24.39
2023-08-17T01:29:18.792Z,24.39
2023-08-17T01:31:55.652Z,24.40
2023-08-17T01:34:28.766Z,24.41
2023-08-17T01:37:01.817Z,24.34
2023-08-17T01:39:40.056Z,24.30
2023-08-17T01:42:09.843Z,24.34
2023-08-17T01:44:38.335Z,24.39
2023-08-17T01:47:06.897Z,24.43
2023-08-17T01:49:35.213Z,24.49
2023-08-17T01:52:03.850Z,24.38
2023-08-17T01:54:33.725Z,24.38
2023-08-17T01:57:02.028Z,24.33
2023-08-17T01:59:30.344Z,24.27
2023-08-17T02:01:58.732Z,24.31
2023-08-17T02:04:27.393Z,24.30
2023-08-17T02:06:55.763Z,24.36
2023-08-17T02:09:26.171Z,24.45
2023-08-17T02:11:56.269Z,24.47
2023-08-17T02:14:24.623Z,24.53
2023-08-17T02:16:52.995Z,24.43
2023-08-17T02:19:22.324Z,24.41
2023-08-17T02:21:50.605Z,24.45
2023-08-17T02:24:18.891Z,24.41
2023-08-17T02:26:47.337Z,24.40
2023-08-17T02:29:17.101Z,24.37
2023-08-17T02:31:45.451Z,24.34
2023-08-17T02:34:13.755Z,24.32
2023-08-17T02:36:42.062Z,24.29
2023-08-17T02:39:10.487Z,24.30
2023-08-17T02:41:38.831Z,24.20
2023-08-17T02:44:07.275Z,24.17
2023-08-17T02:46:38.453Z,24.13
2023-08-17T02:49:07.022Z,24.16
2023-08-17T02:51:35.386Z,24.20
2023-08-17T02:54:03.653Z,24.21
2023-08-17T02:56:32.005Z,24.19
2023-08-17T02:59:00.276Z,24.20
2023-08-17T03:01:28.663Z,24.13
2023-08-17T03:03:58.684Z,24.09
2023-08-17T03:06:27.114Z,24.10
2023-08-17T03:08:55.460Z,24.13
2023-08-17T03:11:23.859Z,24.11
2023-08-17T03:13:52.208Z,24.15
2023-08-17T03:16:20.645Z,24.16
2023-08-17T03:18:49.389Z,24.11
2023-08-17T03:21:19.873Z,24.10
2023-08-17T03:23:48.165Z,24.09
2023-08-17T03:26:16.663Z,24.08
2023-08-17T03:28:45.151Z,24.12
2023-08-17T03:31:13.912Z,24.05
2023-08-17T03:33:42.651Z,24.03
2023-08-17T03:36:11.003Z,24.11
2023-08-17T03:38:40.872Z,24.18
2023-08-17T03:41:09.252Z,24.34
2023-08-17T03:43:37.665Z,24.24
2023-08-17T03:46:07.174Z,24.34
2023-08-17T03:48:35.630Z,24.40
2023-08-17T03:51:04.137Z,24.25
2023-08-17T03:53:32.641Z,24.29
2023-08-17T03:56:02.444Z,24.53
2023-08-17T03:58:34.643Z,24.73
2023-08-17T04:01:03.578Z,24.84
2023-08-17T04:03:32.092Z,24.96
2023-08-17T04:06:00.665Z,25.33
2023-08-17T04:08:29.252Z,25.22
2023-08-17T04:10:57.673Z,25.18
2023-08-17T04:13:28.722Z,25.33
2023-08-17T04:15:57.357Z,25.52
2023-08-17T04:18:25.874Z,25.66
2023-08-17T04:20:55.398Z,25.57
2023-08-17T04:23:24.132Z,25.65
2023-08-17T04:25:52.433Z,25.83
2023-08-17T04:28:21.585Z,25.94
2023-08-17T04:30:52.137Z,25.90
2023-08-17T04:33:24.108Z,26.05
2023-08-17T04:35:52.401Z,25.95
2023-08-17T04:38:20.782Z,26.04
2023-08-17T04:40:49.271Z,26.10
2023-08-17T04:43:18.853Z,26.49
2023-08-17T04:45:49.036Z,26.74
2023-08-17T04:48:18.998Z,26.95
2023-08-17T04:50:47.633Z,27.17
2023-08-17T04:53:15.901Z,27.19
2023-08-17T04:55:44.300Z,27.52
2023-08-17T04:58:12.709Z,27.15
2023-08-17T05:00:41.036Z,27.71
2023-08-17T05:03:14.341Z,28.70
2023-08-17T05:05:54.488Z,29.57
2023-08-17T05:08:23.532Z,29.69
2023-08-17T05:10:52.001Z,30.35
2023-08-17T05:13:20.486Z,29.26
2023-08-17T05:15:49.022Z,28.71
2023-08-17T05:18:17.388Z,27.77
2023-08-17T05:20:45.827Z,28.58
2023-08-17T05:23:15.560Z,28.57
2023-08-17T05:25:43.897Z,28.44
2023-08-17T05:28:12.316Z,28.47
2023-08-17T05:30:40.591Z,28.32
2023-08-17T05:33:08.930Z,28.69
2023-08-17T05:35:37.517Z,28.27
2023-08-17T05:38:06.412Z,29.40
2023-08-17T05:40:36.136Z,28.54
2023-08-17T05:43:04.477Z,27.71
2023-08-17T05:45:32.921Z,27.73
2023-08-17T05:48:01.242Z,28.25
2023-08-17T05:50:30.442Z,29.83
2023-08-17T05:52:59.081Z,28.43
2023-08-17T05:55:27.537Z,28.31
2023-08-17T05:57:57.438Z,28.69
2023-08-17T06:00:25.843Z,28.82
2023-08-17T06:02:56.343Z,29.76
2023-08-17T06:05:27.375Z,30.16
2023-08-17T06:07:55.704Z,30.85
2023-08-17T06:10:26.169Z,30.33
2023-08-17T06:12:54.729Z,31.05
2023-08-17T06:15:25.047Z,30.98
2023-08-17T06:17:53.511Z,31.14
2023-08-17T06:20:22.016Z,30.00
2023-08-17T06:22:51.500Z,29.67
2023-08-17T06:25:19.942Z,29.03
2023-08-17T06:27:51.084Z,28.99
2023-08-17T06:30:19.694Z,30.02
2023-08-17T06:32:49.771Z,29.70
2023-08-17T06:35:18.142Z,30.61
2023-08-17T06:37:49.113Z,31.91
2023-08-17T06:40:17.402Z,30.89
2023-08-17T06:42:45.814Z,29.67
2023-08-17T06:45:14.247Z,29.48
2023-08-17T06:47:42.594Z,30.88
2023-08-17T06:50:13.362Z,30.27
2023-08-17T06:52:41.945Z,30.31
2023-08-17T06:55:11.314Z,29.24
2023-08-17T06:57:39.883Z,30.43
2023-08-17T07:00:09.788Z,30.55
2023-08-17T07:02:52.003Z,31.70
2023-08-17T07:05:25.040Z,32.51
2023-08-17T07:07:54.141Z,30.76
2023-08-17T07:10:22.728Z,31.01
2023-08-17T07:12:51.199Z,31.54
2023-08-17T07:15:19.622Z,31.57
2023-08-17T07:17:47.909Z,31.06
2023-08-17T07:20:17.521Z,30.73
2023-08-17T07:22:47.485Z,30.33
2023-08-17T07:25:15.850Z,30.56
2023-08-17T07:27:44.403Z,30.83
2023-08-17T07:30:13.979Z,31.17
2023-08-17T07:32:42.253Z,31.16
2023-08-17T07:35:10.873Z,31.66
2023-08-17T07:37:39.170Z,30.85
2023-08-17T07:40:10.170Z,30.35
2023-08-17T07:42:39.178Z,30.58
2023-08-17T07:45:08.627Z,30.67
2023-08-17T07:47:38.260Z,30.27
2023-08-17T07:50:07.992Z,29.45
2023-08-17T07:52:36.339Z,29.21
2023-08-17T07:55:05.077Z,28.89
2023-08-17T07:57:34.831Z,29.19
2023-08-17T08:00:03.241Z,29.37
2023-08-17T08:02:31.688Z,29.75
2023-08-17T08:05:00.181Z,29.46
2023-08-17T08:07:28.750Z,29.11
2023-08-17T08:09:57.332Z,28.81
2023-08-17T08:12:25.942Z,28.92
2023-08-17T08:14:55.706Z,28.72
2023-08-17T08:17:24.070Z,28.49
2023-08-17T08:19:52.454Z,28.93
2023-08-17T08:22:20.892Z,28.81
2023-08-17T08:24:49.293Z,28.89
2023-08-17T08:27:17.608Z,28.55
2023-08-17T08:29:46.033Z,29.04
2023-08-17T08:32:15.818Z,29.23
2023-08-17T08:34:44.149Z,29.27
2023-08-17T08:37:12.521Z,29.25
2023-08-17T08:39:52.252Z,29.45
2023-08-17T08:42:20.661Z,29.50
2023-08-17T08:44:49.334Z,29.52
2023-08-17T08:47:20.177Z,29.32
2023-08-17T08:49:55.748Z,29.42
2023-08-17T08:52:26.869Z,29.13
2023-08-17T08:54:59.526Z,28.76
2023-08-17T08:57:30.879Z,28.84
2023-08-17T09:00:01.442Z,28.98
2023-08-17T09:02:32.384Z,28.86
2023-08-17T09:05:01.991Z,28.84
2023-08-17T09:07:32.803Z,29.01
2023-08-17T09:10:01.445Z,29.27
2023-08-17T09:12:39.320Z,29.31
2023-08-17T09:15:10.317Z,29.33
2023-08-17T09:17:40.586Z,29.33
2023-08-17T09:20:11.667Z,29.44
2023-08-17T09:22:41.465Z,29.64
2023-08-17T09:25:11.048Z,30.00
2023-08-17T09:27:39.549Z,29.62
2023-08-17T09:30:09.469Z,29.08
2023-08-17T09:32:39.622Z,29.36
2023-08-17T09:35:09.282Z,29.21
2023-08-17T09:37:37.858Z,29.26
2023-08-17T09:40:06.963Z,29.77
2023-08-17T09:42:37.965Z,29.87
2023-08-17T09:45:07.372Z,29.93
2023-08-17T09:47:35.795Z,29.89
2023-08-17T09:50:08.653Z,29.45
2023-08-17T09:52:41.307Z,29.76
2023-08-17T09:55:12.293Z,30.10
2023-08-17T09:57:42.701Z,30.09
2023-08-17T10:00:12.226Z,30.00
2023-08-17T10:02:40.604Z,30.01
2023-08-17T10:05:12.473Z,29.92
2023-08-17T10:07:45.828Z,29.74
2023-08-17T10:10:16.295Z,29.48
2023-08-17T10:12:56.275Z,29.46
2023-08-17T10:15:29.109Z,29.61
2023-08-17T10:18:05.790Z,29.70
2023-08-17T10:20:42.434Z,29.09
2023-08-17T10:23:18.753Z,29.58
2023-08-17T10:25:51.499Z,29.24
2023-08-17T10:28:21.752Z,29.45
2023-08-17T10:30:51.360Z,29.25
2023-08-17T10:33:21.703Z,29.10
2023-08-17T10:35:51.943Z,29.46
2023-08-17T10:38:20.679Z,29.36
2023-08-17T10:41:17.866Z,29.73
2023-08-17T10:43:59.468Z,29.25
2023-08-17T10:46:37.900Z,29.25
2023-08-17T10:49:08.124Z,28.94
2023-08-17T10:51:37.986Z,29.14
2023-08-17T10:54:07.095Z,29.63
2023-08-17T10:56:35.601Z,29.16
2023-08-17T10:59:04.871Z,29.26
2023-08-17T11:01:38.003Z,29.42
2023-08-17T11:04:14.156Z,29.58
2023-08-17T11:06:44.918Z,29.64
2023-08-17T11:09:13.878Z,29.15
2023-08-17T11:11:43.037Z,29.10
2023-08-17T11:14:11.533Z,28.79
2023-08-17T11:16:39.869Z,28.82
2023-08-17T11:19:13.569Z,28.75
2023-08-17T11:21:44.425Z,28.70
2023-08-17T11:24:13.133Z,28.87
2023-08-17T11:26:41.518Z,28.67
2023-08-17T11:29:10.197Z,28.58
2023-08-17T11:31:38.570Z,28.66
2023-08-17T11:34:07.064Z,29.12
2023-08-17T11:36:35.880Z,29.13
2023-08-17T11:39:10.586Z,29.02
2023-08-17T11:41:39.152Z,28.71
2023-08-17T11:44:08.013Z,28.83
2023-08-17T11:46:36.398Z,29.09
2023-08-17T11:49:04.976Z,28.74
2023-08-17T11:51:33.665Z,28.83
2023-08-17T11:54:04.324Z,28.86
2023-08-17T11:56:34.171Z,28.76
2023-08-17T11:59:12.546Z,28.75
2023-08-17T12:01:41.010Z,29.11
2023-08-17T12:04:10.074Z,28.96
2023-08-17T12:06:40.600Z,28.94
2023-08-17T12:09:09.539Z,29.25
2023-08-17T12:11:40.346Z,29.44
2023-08-17T12:14:12.779Z,29.39
2023-08-17T12:16:49.699Z,29.62
2023-08-17T12:19:18.071Z,29.83
2023-08-17T12:21:46.448Z,30.51
2023-08-17T12:24:15.814Z,30.31
2023-08-17T12:26:45.880Z,30.38
2023-08-17T12:29:14.457Z,29.82
2023-08-17T12:31:43.240Z,29.84
2023-08-17T12:34:11.704Z,29.88
2023-08-17T12:36:40.050Z,29.57
2023-08-17T12:39:08.406Z,29.92
2023-08-17T12:41:36.836Z,29.46
2023-08-17T12:44:06.935Z,29.63
2023-08-17T12:46:36.012Z,29.49
2023-08-17T12:49:04.343Z,29.79
2023-08-17T12:51:32.640Z,29.83
2023-08-17T12:54:01.003Z,29.56
2023-08-17T12:56:29.286Z,29.67
2023-08-17T12:59:03.013Z,29.84
2023-08-17T13:01:33.210Z,29.48
2023-08-17T13:04:01.593Z,29.46
2023-08-17T13:06:43.746Z,29.46
2023-08-17T13:09:17.244Z,29.47
2023-08-17T13:11:45.597Z,29.49
2023-08-17T13:14:14.143Z,29.84
2023-08-17T13:16:44.098Z,29.62
2023-08-17T13:19:12.527Z,29.36
2023-08-17T13:21:40.860Z,29.49
2023-08-17T13:24:09.983Z,29.66
2023-08-17T13:26:38.433Z,29.39
2023-08-17T13:29:06.979Z,29.32
2023-08-17T13:31:35.312Z,29.21
2023-08-17T13:34:04.637Z,29.39
2023-08-17T13:36:33.131Z,29.47
2023-08-17T13:39:01.513Z,29.63
2023-08-17T13:41:29.797Z,29.98
2023-08-17T13:44:00.774Z,29.51
2023-08-17T13:46:29.992Z,29.25
2023-08-17T13:48:58.698Z,29.25
2023-08-17T13:51:28.884Z,29.46
2023-08-17T13:53:57.259Z,28.94
2023-08-17T13:56:26.689Z,28.91
2023-08-17T13:58:56.298Z,29.23
2023-08-17T14:01:24.661Z,28.95
2023-08-17T14:03:53.383Z,28.80
2023-08-17T14:06:21.883Z,28.64
2023-08-17T14:08:52.513Z,28.28
2023-08-17T14:11:21.112Z,28.21
2023-08-17T14:13:49.423Z,28.35
2023-08-17T14:16:17.817Z,28.41
2023-08-17T14:18:46.121Z,28.46
2023-08-17T14:21:14.485Z,28.44
2023-08-17T14:23:42.794Z,28.57
2023-08-17T14:26:12.582Z,28.68
2023-08-17T14:28:44.392Z,28.90
2023-08-17T14:31:17.117Z,28.73
2023-08-17T14:33:45.567Z,28.59
2023-08-17T14:36:19.517Z,28.42
2023-08-17T14:38:48.523Z,28.42
2023-08-17T14:41:18.272Z,28.62
2023-08-17T14:43:46.766Z,28.49
2023-08-17T14:46:15.862Z,28.66
2023-08-17T14:48:44.591Z,28.46
2023-08-17T14:51:12.996Z,28.58
2023-08-17T14:53:41.344Z,28.65
2023-08-17T14:56:09.670Z,28.52
2023-08-17T14:58:39.646Z,28.41
2023-08-17T15:01:08.025Z,28.17
2023-08-17T15:03:36.572Z,28.17
2023-08-17T15:06:05.099Z,28.45
2023-08-17T15:08:33.443Z,28.45
2023-08-17T15:11:03.443Z,28.27
2023-08-17T15:13:31.758Z,28.26
2023-08-17T15:16:01.668Z,28.53
2023-08-17T15:18:30.060Z,28.44
2023-08-17T15:20:58.347Z,28.55
2023-08-17T15:23:26.647Z,28.58
2023-08-17T15:25:55.069Z,28.40
2023-08-17T15:28:23.359Z,28.18
2023-08-17T15:31:01.890Z,28.16
2023-08-17T15:33:31.842Z,28.09
2023-08-17T15:36:02.120Z,28.04
2023-08-17T15:38:30.454Z,28.16
2023-08-17T15:40:58.788Z,27.96
2023-08-17T15:43:27.155Z,27.79
2023-08-17T15:45:55.554Z,27.75
2023-08-17T15:48:23.882Z,27.69
2023-08-17T15:50:53.724Z,27.93
2023-08-17T15:53:22.089Z,27.58
2023-08-17T15:55:50.596Z,27.40
2023-08-17T15:58:18.826Z,27.47
2023-08-17T16:00:47.230Z,27.43
2023-08-17T16:03:16.931Z,27.47
2023-08-17T16:05:45.372Z,27.47
2023-08-17T16:08:15.108Z,27.36
2023-08-17T16:10:43.532Z,27.24
2023-08-17T16:13:12.279Z,27.07
2023-08-17T16:15:40.683Z,27.22
2023-08-17T16:18:09.292Z,27.18
2023-08-17T16:20:37.633Z,27.16
2023-08-17T16:23:06.303Z,27.28
2023-08-17T16:25:36.014Z,27.19
2023-08-17T16:28:04.999Z,27.08
2023-08-17T16:30:36.628Z,27.15
2023-08-17T16:33:05.555Z,27.05
2023-08-17T16:35:33.897Z,26.88
2023-08-17T16:38:02.217Z,27.10
2023-08-17T16:40:37.632Z,26.97
2023-08-17T16:43:08.437Z,26.81
2023-08-17T16:45:36.749Z,26.83
2023-08-17T16:48:05.670Z,26.84
2023-08-17T16:50:34.561Z,26.84
2023-08-17T16:53:03.256Z,26.92
2023-08-17T16:55:32.646Z,26.69
2023-08-17T16:58:01.047Z,26.70
2023-08-17T17:00:31.434Z,26.73
2023-08-17T17:02:59.809Z,26.67
2023-08-17T17:05:28.344Z,26.70
2023-08-17T17:07:58.654Z,26.65
2023-08-17T17:10:27.371Z,26.60
2023-08-17T17:12:55.693Z,26.57
2023-08-17T17:15:24.241Z,26.59
2023-08-17T17:17:54.031Z,26.62
2023-08-17T17:20:22.621Z,26.60
2023-08-17T17:22:51.313Z,26.49
2023-08-17T17:25:19.826Z,26.59
2023-08-17T17:27:48.097Z,26.45
2023-08-17T17:30:16.397Z,26.53
2023-08-17T17:32:44.770Z,26.40
2023-08-17T17:35:14.659Z,26.48
2023-08-17T17:37:42.971Z,26.57
2023-08-17T17:40:12.465Z,26.48
2023-08-17T17:42:40.870Z,26.33
2023-08-17T17:45:09.762Z,26.31
2023-08-17T17:47:38.223Z,26.24
2023-08-17T17:50:08.800Z,26.21
2023-08-17T17:52:38.606Z,26.24
2023-08-17T17:55:07.734Z,26.18
2023-08-17T17:57:36.055Z,26.10
2023-08-17T18:00:05.990Z,26.07
2023-08-17T18:02:34.805Z,25.99
2023-08-17T18:05:03.298Z,25.96
2023-08-17T18:07:31.632Z,25.89
2023-08-17T18:10:03.527Z,25.91
2023-08-17T18:12:33.599Z,25.95
2023-08-17T18:15:01.922Z,25.88
2023-08-17T18:17:30.529Z,25.87
2023-08-17T18:20:01.893Z,25.82
2023-08-17T18:22:30.338Z,25.89
2023-08-17T18:24:58.801Z,25.89
2023-08-17T18:27:28.876Z,25.77
2023-08-17T18:29:57.539Z,25.65
2023-08-17T18:32:25.854Z,25.68
2023-08-17T18:34:54.189Z,25.71
2023-08-17T18:37:22.513Z,25.64
2023-08-17T18:39:50.812Z,25.59
2023-08-17T18:42:19.161Z,25.63
2023-08-17T18:44:48.917Z,25.64
2023-08-17T18:47:17.300Z,25.60
2023-08-17T18:49:45.603Z,25.61
2023-08-17T18:52:13.926Z,25.51
2023-08-17T18:54:59.421Z,25.58
2023-08-17T18:57:27.998Z,25.50
2023-08-17T18:59:58.031Z,25.46
2023-08-17T19:02:26.419Z,25.43
2023-08-17T19:04:54.892Z,25.42
2023-08-17T19:07:23.787Z,25.45
2023-08-17T19:09:52.119Z,25.54
2023-08-17T19:12:20.595Z,25.47
2023-08-17T19:14:49.163Z,25.41
2023-08-17T19:17:19.539Z,25.41
2023-08-17T19:19:48.129Z,25.31
2023-08-17T19:22:16.445Z,25.49
2023-08-17T19:24:44.983Z,25.42
2023-08-17T19:27:13.424Z,25.38
2023-08-17T19:29:41.707Z,25.36
2023-08-17T19:32:10.126Z,25.35
2023-08-17T19:34:39.946Z,25.30
2023-08-17T19:37:08.297Z,25.29
2023-08-17T19:39:36.648Z,25.20
2023-08-17T19:42:05.120Z,25.18
2023-08-17T19:44:33.612Z,25.18
2023-08-17T19:47:02.040Z,25.13
2023-08-17T19:49:30.314Z,25.13
2023-08-17T19:52:00.143Z,25.06
2023-08-17T19:54:28.549Z,25.08
2023-08-17T19:56:57.914Z,25.03
2023-08-17T19:59:27.227Z,25.06
2023-08-17T20:01:55.692Z,25.06
2023-08-17T20:04:24.092Z,25.00
2023-08-17T20:06:53.030Z,24.99
2023-08-17T20:09:22.955Z,25.02
2023-08-17T20:11:51.222Z,24.95
2023-08-17T20:14:21.259Z,24.85
2023-08-17T20:16:51.779Z,24.84
2023-08-17T20:19:20.132Z,24.81
2023-08-17T20:21:48.783Z,24.84
2023-08-17T20:24:18.022Z,24.84
2023-08-17T20:26:48.141Z,24.90
2023-08-17T20:29:16.477Z,24.91
2023-08-17T20:31:45.663Z,24.90
2023-08-17T20:34:14.042Z,24.93
2023-08-17T20:36:42.574Z,24.93
2023-08-17T20:39:12.119Z,25.02
2023-08-17T20:41:40.930Z,24.95
2023-08-17T20:44:10.768Z,25.01
2023-08-17T20:46:39.133Z,25.05
2023-08-17T20:49:08.902Z,25.04
2023-08-17T20:51:37.340Z,25.11
2023-08-17T20:54:06.167Z,25.14
2023-08-17T20:56:34.467Z,25.08
2023-08-17T20:59:02.829Z,25.02
2023-08-17T21:01:32.759Z,25.07
2023-08-17T21:04:01.239Z,25.23
2023-08-17T21:06:29.697Z,25.26
2023-08-17T21:08:58.003Z,25.27
2023-08-17T21:11:27.468Z,25.18
2023-08-17T21:13:55.838Z,25.23
2023-08-17T21:16:24.184Z,25.20
2023-08-17T21:18:58.585Z,25.23
2023-08-17T21:21:27.063Z,25.21
2023-08-17T21:23:55.373Z,25.34
2023-08-17T21:26:23.780Z,25.37
2023-08-17T21:28:52.965Z,25.36
2023-08-17T21:31:21.384Z,25.34
2023-08-17T21:33:49.757Z,25.37
2023-08-17T21:36:19.615Z,25.34
2023-08-17T21:38:48.622Z,25.34
2023-08-17T21:41:16.963Z,25.46
2023-08-17T21:43:45.309Z,25.52
2023-08-17T21:46:13.721Z,25.52
2023-08-17T21:48:42.258Z,25.58
2023-08-17T21:51:10.545Z,25.52
2023-08-17T21:53:40.222Z,25.50
2023-08-17T21:56:08.586Z,25.52
2023-08-17T21:58:36.893Z,25.53
2023-08-17T22:01:05.957Z,25.50
2023-08-17T22:03:34.669Z,25.50
2023-08-17T22:06:07.084Z,25.45
2023-08-17T22:08:36.386Z,25.45
2023-08-17T22:11:06.111Z,25.38
2023-08-17T22:13:34.489Z,25.38
2023-08-17T22:16:03.013Z,25.31
2023-08-17T22:18:31.361Z,25.29
2023-08-17T22:20:59.659Z,25.29
2023-08-17T22:23:28.232Z,25.23
2023-08-17T22:25:56.961Z,25.41
2023-08-17T22:28:28.956Z,25.43
2023-08-17T22:31:04.855Z,25.41
2023-08-17T22:33:33.198Z,25.43
2023-08-17T22:36:01.573Z,25.38
2023-08-17T22:38:29.835Z,25.39
2023-08-17T22:40:58.252Z,25.32
2023-08-17T22:43:26.514Z,25.27
2023-08-17T22:45:56.242Z,25.29
2023-08-17T22:48:24.745Z,25.36
2023-08-17T22:50:53.492Z,25.31
2023-08-17T22:53:22.168Z,25.35
2023-08-17T22:55:50.503Z,25.33
2023-08-17T22:58:18.979Z,25.31
2023-08-17T23:00:47.413Z,25.31
2023-08-17T23:03:17.174Z,25.30
2023-08-17T23:05:46.118Z,25.32
2023-08-17T23:08:14.429Z,25.29
2023-08-17T23:10:43.304Z,25.26
2023-08-17T23:13:11.618Z,25.28
2023-08-17T23:15:39.914Z,25.24
2023-08-17T23:18:08.338Z,25.29
2023-08-17T23:20:38.101Z,25.37
2023-08-17T23:23:07.526Z,25.37
2023-08-17T23:25:35.928Z,25.34
2023-08-17T23:28:04.306Z,25.44
2023-08-17T23:30:32.719Z,25.50
2023-08-17T23:33:01.044Z,25.50
2023-08-17T23:35:29.416Z,25.50
2023-08-17T23:38:00.101Z,25.54
2023-08-17T23:40:28.556Z,25.51
2023-08-17T23:42:57.238Z,25.50
2023-08-17T23:45:25.678Z,25.46
2023-08-17T23:47:54.073Z,25.48
2023-08-17T23:50:22.614Z,25.50
2023-08-17T23:52:51.372Z,25.51
2023-08-17T23:55:21.339Z,25.41
2023-08-17T23:57:50.573Z,25.37
